createdAt,value
2023-04-22T00:02:13.334Z,9.50
2023-04-22T00:07:34.499Z,9.70
2023-04-22T00:10:03.878Z,10.10
2023-04-22T00:12:31.242Z,8.73
2023-04-22T00:15:01.076Z,9.88
2023-04-22T00:17:27.945Z,10.38
2023-04-22T00:19:56.274Z,10.43
2023-04-22T00:22:26.720Z,10.45
2023-04-22T00:24:55.961Z,9.52
2023-04-22T00:27:24.677Z,9.48
2023-04-22T00:29:52.296Z,10.93
2023-04-22T00:32:19.690Z,11.35
2023-04-22T00:34:46.677Z,10.95
2023-04-22T00:37:14.427Z,11.82
2023-04-22T00:39:41.925Z,11.98
2023-04-22T00:42:09.413Z,11.55
2023-04-22T00:44:40.582Z,11.73
2023-04-22T00:47:15.187Z,11.10
2023-04-22T00:49:44.673Z,11.82
2023-04-22T00:52:12.679Z,12.30
2023-04-22T00:54:41.453Z,11.55
2023-04-22T00:57:13.382Z,10.98
2023-04-22T00:59:42.767Z,13.35
2023-04-22T01:02:11.162Z,10.93
2023-04-22T01:04:40.881Z,10.52
2023-04-22T01:07:11.291Z,10.13
2023-04-22T01:09:40.065Z,9.88
2023-04-22T01:12:07.583Z,9.43
2023-04-22T01:14:34.972Z,9.27
2023-04-22T01:17:03.853Z,9.35
2023-04-22T01:19:33.018Z,9.27
2023-04-22T01:21:59.816Z,9.90
2023-04-22T01:24:29.993Z,8.65
2023-04-22T01:26:58.631Z,9.10
2023-04-22T01:29:27.689Z,9.35
2023-04-22T01:31:54.642Z,8.80
2023-04-22T01:34:23.833Z,10.30
2023-04-22T01:36:51.551Z,9.25
2023-04-22T01:39:21.155Z,9.38
2023-04-22T01:41:49.962Z,9.85
2023-04-22T01:44:17.612Z,9.07
2023-04-22T01:46:44.356Z,8.88
2023-04-22T01:49:11.245Z,8.48
2023-04-22T01:51:41.401Z,8.45
2023-04-22T01:54:08.752Z,8.20
2023-04-22T01:56:37.475Z,8.00
2023-04-22T01:59:05.347Z,8.85
2023-04-22T02:01:33.888Z,8.65
2023-04-22T02:04:01.352Z,8.93
2023-04-22T02:06:30.224Z,8.20
2023-04-22T02:08:59.514Z,8.70
2023-04-22T02:11:28.010Z,9.82
2023-04-22T02:13:55.662Z,9.45
2023-04-22T02:16:23.763Z,10.95
2023-04-22T02:18:54.318Z,9.40
2023-04-22T02:21:24.377Z,9.35
2023-04-22T02:23:52.632Z,10.55
2023-04-22T02:26:29.369Z,9.50
2023-04-22T02:31:39.015Z,9.02
2023-04-22T02:34:06.802Z,8.68
2023-04-22T02:36:36.175Z,9.27
2023-04-22T02:39:04.396Z,9.80
2023-04-22T02:41:35.006Z,10.00
2023-04-22T02:44:04.461Z,10.40
2023-04-22T02:49:28.749Z,9.93
2023-04-22T02:52:04.564Z,9.10
2023-04-22T02:54:32.397Z,9.77
2023-04-22T02:57:01.371Z,9.85
2023-04-22T02:59:38.606Z,9.25
2023-04-22T03:02:07.930Z,10.00
2023-04-22T03:04:37.769Z,9.43
2023-04-22T03:07:06.850Z,9.05
2023-04-22T03:09:39.596Z,9.50
2023-04-22T03:12:06.580Z,9.80
2023-04-22T03:14:33.671Z,10.13
2023-04-22T03:17:03.382Z,9.70
2023-04-22T03:19:32.788Z,9.73
2023-04-22T03:22:04.785Z,10.35
2023-04-22T03:24:35.302Z,10.65
2023-04-22T03:27:04.044Z,10.45
2023-04-22T03:29:31.075Z,10.23
2023-04-22T03:31:58.213Z,9.88
2023-04-22T03:34:25.675Z,9.95
2023-04-22T03:36:53.124Z,10.82
2023-04-22T03:39:20.112Z,10.88
2023-04-22T03:41:46.951Z,10.50
2023-04-22T03:44:13.808Z,10.85
2023-04-22T03:46:40.965Z,10.80
2023-04-22T03:49:10.729Z,9.70
2023-04-22T03:51:37.511Z,9.65
2023-04-22T03:54:04.362Z,10.13
2023-04-22T03:56:31.437Z,10.90
2023-04-22T03:58:58.297Z,12.07
2023-04-22T04:01:25.304Z,11.50
2023-04-22T04:03:52.252Z,12.18
2023-04-22T04:06:19.676Z,11.25
2023-04-22T04:08:46.670Z,11.20
2023-04-22T04:11:13.550Z,12.02
2023-04-22T04:13:40.440Z,11.85
2023-04-22T04:16:08.346Z,11.80
2023-04-22T04:18:40.615Z,11.88
2023-04-22T04:21:07.961Z,12.17
2023-04-22T04:23:36.461Z,11.52
2023-04-22T04:26:03.374Z,11.55
2023-04-22T04:28:33.394Z,11.25
2023-04-22T04:31:02.891Z,11.75
2023-04-22T04:33:32.590Z,11.15
2023-04-22T04:35:59.852Z,11.77
2023-04-22T04:38:28.103Z,11.57
2023-04-22T04:40:54.930Z,11.50
2023-04-22T04:43:26.258Z,10.50
2023-04-22T04:45:54.637Z,9.52
2023-04-22T04:48:24.939Z,11.27
2023-04-22T04:50:54.109Z,11.50
2023-04-22T04:53:22.341Z,10.90
2023-04-22T04:55:49.602Z,10.77
2023-04-22T04:58:16.699Z,11.77
2023-04-22T05:00:43.830Z,11.05
2023-04-22T05:03:11.535Z,11.52
2023-04-22T05:05:39.291Z,10.43
2023-04-22T05:08:07.734Z,11.88
2023-04-22T05:13:22.024Z,9.27
2023-04-22T05:15:51.040Z,10.45
2023-04-22T05:18:19.323Z,9.90
2023-04-22T05:20:46.182Z,9.43
2023-04-22T05:23:15.313Z,10.43
2023-04-22T05:25:43.496Z,11.07
2023-04-22T05:28:10.881Z,10.77
2023-04-22T05:30:39.269Z,10.07
2023-04-22T05:33:09.966Z,11.27
2023-04-22T05:35:37.035Z,11.15
2023-04-22T05:38:04.289Z,11.18
2023-04-22T05:40:31.006Z,10.77
2023-04-22T05:42:57.852Z,11.75
2023-04-22T05:45:24.725Z,11.23
2023-04-22T05:47:52.938Z,12.00
2023-04-22T05:50:21.244Z,12.05
2023-04-22T05:52:50.052Z,10.90
2023-04-22T05:55:17.017Z,11.00
2023-04-22T05:57:44.647Z,11.20
2023-04-22T06:00:12.115Z,11.25
2023-04-22T06:02:39.715Z,11.98
2023-04-22T06:05:07.609Z,11.63
2023-04-22T06:07:35.456Z,11.82
2023-04-22T06:10:05.333Z,10.95
2023-04-22T06:12:34.009Z,11.50
2023-04-22T06:15:00.963Z,11.70
2023-04-22T06:17:28.366Z,11.20
2023-04-22T06:19:55.713Z,11.05
2023-04-22T06:22:22.809Z,11.35
2023-04-22T06:24:50.821Z,11.32
2023-04-22T06:27:17.582Z,11.15
2023-04-22T06:29:46.789Z,10.98
2023-04-22T06:32:13.872Z,11.48
2023-04-22T06:34:41.230Z,10.20
2023-04-22T06:37:08.712Z,10.38
2023-04-22T06:39:36.015Z,10.27
2023-04-22T06:42:03.698Z,9.57
2023-04-22T06:44:32.225Z,10.10
2023-04-22T06:47:00.255Z,10.32
2023-04-22T06:49:27.644Z,10.65
2023-04-22T06:51:56.694Z,10.40
2023-04-22T06:54:23.596Z,9.00
2023-04-22T06:56:50.550Z,9.77
2023-04-22T06:59:17.379Z,9.77
2023-04-22T07:01:44.507Z,9.68
2023-04-22T07:04:11.502Z,9.88
2023-04-22T07:06:39.146Z,8.57
2023-04-22T07:09:06.726Z,9.95
2023-04-22T07:11:34.498Z,9.20
2023-04-22T07:14:01.599Z,9.65
2023-04-22T07:16:29.195Z,9.35
2023-04-22T07:18:56.574Z,9.40
2023-04-22T07:21:29.601Z,8.85
2023-04-22T07:23:58.535Z,9.35
2023-04-22T07:26:33.539Z,8.90
2023-04-22T07:29:00.268Z,8.45
2023-04-22T07:31:27.142Z,8.20
2023-04-22T07:33:54.513Z,8.38
2023-04-22T07:36:24.292Z,8.57
2023-04-22T07:38:51.067Z,8.75
2023-04-22T07:41:21.124Z,8.25
2023-04-22T07:43:47.889Z,8.52
2023-04-22T07:46:15.384Z,9.40
2023-04-22T07:48:42.580Z,8.80
2023-04-22T07:51:09.425Z,9.48
2023-04-22T07:53:37.307Z,8.27
2023-04-22T07:56:07.199Z,8.70
2023-04-22T07:58:35.972Z,8.57
2023-04-22T08:01:02.924Z,9.20
2023-04-22T08:03:30.464Z,10.07
2023-04-22T08:05:58.386Z,9.15
2023-04-22T08:08:26.248Z,8.65
2023-04-22T08:10:54.983Z,9.50
2023-04-22T08:13:22.692Z,9.63
2023-04-22T08:15:49.517Z,8.75
2023-04-22T08:18:16.888Z,9.20
2023-04-22T08:20:44.457Z,9.27
2023-04-22T08:23:13.460Z,9.48
2023-04-22T08:25:40.407Z,10.88
2023-04-22T08:28:07.745Z,10.35
2023-04-22T08:30:34.896Z,10.52
2023-04-22T08:33:01.695Z,10.60
2023-04-22T08:35:29.050Z,10.52
2023-04-22T08:37:55.863Z,12.15
2023-04-22T08:40:24.062Z,10.40
2023-04-22T08:42:52.342Z,10.38
2023-04-22T08:45:19.203Z,11.57
2023-04-22T08:47:47.547Z,10.25
2023-04-22T08:50:16.857Z,10.63
2023-04-22T08:52:44.018Z,8.88
2023-04-22T08:55:11.181Z,8.68
2023-04-22T08:57:39.198Z,8.60
2023-04-22T09:00:10.641Z,7.70
2023-04-22T09:02:38.607Z,7.82
2023-04-22T09:05:06.648Z,7.32
2023-04-22T09:07:35.982Z,6.40
2023-04-22T09:10:03.193Z,6.90
2023-04-22T09:12:31.314Z,6.97
2023-04-22T09:14:58.330Z,6.63
2023-04-22T09:17:32.805Z,6.00
2023-04-22T09:20:03.332Z,5.22
2023-04-22T09:22:41.220Z,6.28
2023-04-22T09:25:28.556Z,6.38
2023-04-22T09:27:59.690Z,5.65
2023-04-22T09:30:32.074Z,5.68
2023-04-22T09:33:00.641Z,5.70
2023-04-22T09:46:46.376Z,6.00
2023-04-22T09:49:19.806Z,5.63
2023-04-22T09:54:31.842Z,6.50
2023-04-22T09:57:02.618Z,5.40
2023-04-22T10:02:27.942Z,5.80
2023-04-22T10:08:05.725Z,4.95
2023-04-22T10:19:05.829Z,8.93
2023-04-22T10:24:38.654Z,4.45
2023-04-22T10:27:13.749Z,6.10
2023-04-22T10:29:46.093Z,4.53
2023-04-22T10:38:08.425Z,4.60
2023-04-22T10:43:19.923Z,5.65
2023-04-22T10:48:16.568Z,4.50
2023-04-22T10:50:51.220Z,4.05
2023-04-22T10:59:26.784Z,4.28
2023-04-22T11:02:04.776Z,5.93
2023-04-22T11:07:36.757Z,4.00
2023-04-22T11:10:34.563Z,3.90
2023-04-22T11:13:08.192Z,4.60
2023-04-22T11:18:38.391Z,4.30
2023-04-22T11:29:30.186Z,4.18
2023-04-22T18:21:34.764Z,4.53
2023-04-22T19:21:50.923Z,4.85
2023-04-22T19:24:19.745Z,5.35
2023-04-22T19:26:50.125Z,7.30
2023-04-22T19:29:18.191Z,5.38
2023-04-22T19:31:46.667Z,4.70
2023-04-22T19:34:13.953Z,5.43
2023-04-22T19:36:44.446Z,5.85
2023-04-22T19:39:14.784Z,4.85
2023-04-22T19:41:41.783Z,5.80
2023-04-22T19:44:12.686Z,5.55
2023-04-22T19:46:40.963Z,6.00
2023-04-22T19:49:10.224Z,5.30
2023-04-22T19:51:37.016Z,5.03
2023-04-22T19:54:05.870Z,5.68
2023-04-22T19:56:32.945Z,6.38
2023-04-22T19:58:59.720Z,6.45
2023-04-22T20:01:26.799Z,5.30
2023-04-22T20:03:54.168Z,5.63
2023-04-22T20:06:28.293Z,4.95
2023-04-22T20:09:08.016Z,5.72
2023-04-22T20:11:36.668Z,5.88
2023-04-22T20:14:08.200Z,6.15
2023-04-22T20:16:47.515Z,5.50
2023-04-22T20:19:34.324Z,4.95
2023-04-22T20:22:08.417Z,5.20
2023-04-22T20:24:45.602Z,5.00
2023-04-22T20:29:46.076Z,4.88
2023-04-22T20:32:14.127Z,5.07
2023-04-22T20:34:42.648Z,5.07
2023-04-22T20:37:11.048Z,5.65
2023-04-22T20:39:39.281Z,5.22
2023-04-22T20:42:07.011Z,5.25
2023-04-22T20:44:35.736Z,5.18
2023-04-22T20:47:11.166Z,5.05
2023-04-22T20:49:41.868Z,5.25
2023-04-22T20:52:29.822Z,5.60
2023-04-22T20:55:08.797Z,4.93
2023-04-22T21:03:08.097Z,5.15
2023-04-22T21:05:46.880Z,5.57
2023-04-22T21:08:27.430Z,6.10
2023-04-22T21:10:56.859Z,5.10
2023-04-22T21:13:24.236Z,5.47
2023-04-22T21:15:51.207Z,5.32
2023-04-22T21:18:20.008Z,5.63
2023-04-22T21:20:47.121Z,5.60
2023-04-22T21:23:16.425Z,6.00
2023-04-22T21:25:43.242Z,4.85
2023-04-22T21:28:10.647Z,5.40
2023-04-22T21:30:37.629Z,5.55
2023-04-22T21:33:04.398Z,6.20
2023-04-22T21:35:31.532Z,4.72
2023-04-22T21:37:59.546Z,5.60
2023-04-22T21:40:26.265Z,5.95
2023-04-22T21:42:53.337Z,5.82
2023-04-22T21:45:21.025Z,5.13
2023-04-22T21:47:47.776Z,6.35
2023-04-22T21:50:14.628Z,5.45
2023-04-22T21:52:41.858Z,5.53
2023-04-22T21:55:09.058Z,5.97
2023-04-22T21:57:35.832Z,5.30
2023-04-22T22:00:02.834Z,5.38
2023-04-22T22:02:29.639Z,6.13
2023-04-22T22:04:56.512Z,6.60
2023-04-22T22:07:23.329Z,6.03
2023-04-22T22:09:50.206Z,5.50
2023-04-22T22:12:17.388Z,5.95
2023-04-22T22:14:44.666Z,6.13
2023-04-22T22:17:11.766Z,5.85
2023-04-22T22:19:38.899Z,6.05
2023-04-22T22:22:05.828Z,6.13
2023-04-22T22:24:32.663Z,5.82
2023-04-22T22:26:59.770Z,6.03
2023-04-22T22:29:29.493Z,5.20
2023-04-22T22:31:56.341Z,6.70
2023-04-22T22:34:23.687Z,5.63
2023-04-22T22:36:50.755Z,5.97
2023-04-22T22:39:18.130Z,5.63
2023-04-22T22:41:44.922Z,6.50
2023-04-22T22:44:11.743Z,6.88
2023-04-22T22:46:40.309Z,6.40
2023-04-22T22:49:07.543Z,6.90
2023-04-22T22:51:34.741Z,6.78
2023-04-22T22:54:01.552Z,6.18
2023-04-22T22:56:28.494Z,7.13
2023-04-22T22:58:55.893Z,6.22
2023-04-22T23:01:23.046Z,6.57
2023-04-22T23:03:50.312Z,7.07
2023-04-22T23:06:17.554Z,6.35
2023-04-22T23:08:44.401Z,5.25
2023-04-22T23:11:11.903Z,6.75
2023-04-22T23:13:38.986Z,6.20
2023-04-22T23:16:06.086Z,6.20
2023-04-22T23:18:33.016Z,6.55
2023-04-22T23:21:01.762Z,6.57
2023-04-22T23:23:29.932Z,6.57
2023-04-22T23:26:00.753Z,6.03
2023-04-22T23:28:29.142Z,6.25
2023-04-22T23:30:56.902Z,6.25
2023-04-22T23:33:24.373Z,8.05
2023-04-22T23:35:56.601Z,6.00
2023-04-22T23:38:23.678Z,6.70
2023-04-22T23:40:50.433Z,6.00
2023-04-22T23:43:21.842Z,6.47
2023-04-22T23:45:48.675Z,5.75
2023-04-22T23:48:15.912Z,6.70
2023-04-22T23:50:42.722Z,6.28
2023-04-22T23:53:09.496Z,6.68
2023-04-22T23:55:36.680Z,6.07
2023-04-22T23:58:03.963Z,6.72
